sensor_id;sensor_type;location;lat;lon;timestamp;temperature;humidity
17851;DHT22;9051;51.548;14.348;2022-07-01T00:01:09;20.90;99.90
17851;DHT22;9051;51.548;14.348;2022-07-01T00:03:43;20.90;99.90
17851;DHT22;9051;51.548;14.348;2022-07-01T00:06:20;20.90;99.90
17851;DHT22;9051;51.548;14.348;2022-07-01T00:08:52;20.80;99.90
17851;DHT22;9051;51.548;14.348;2022-07-01T00:11:25;20.70;99.90
17851;DHT22;9051;51.548;14.348;2022-07-01T00:13:57;20.70;99.90
17851;DHT22;9051;51.548;14.348;2022-07-01T00:16:29;20.70;99.90
17851;DHT22;9051;51.548;14.348;2022-07-01T00:19:04;20.70;99.90
17851;DHT22;9051;51.548;14.348;2022-07-01T00:21:39;20.70;99.90
17851;DHT22;9051;51.548;14.348;2022-07-01T00:24:11;20.80;99.90
17851;DHT22;9051;51.548;14.348;2022-07-01T00:26:42;20.80;99.90
17851;DHT22;9051;51.548;14.348;2022-07-01T00:29:15;20.70;99.90
17851;DHT22;9051;51.548;14.348;2022-07-01T00:31:47;20.60;99.90
17851;DHT22;9051;51.548;14.348;2022-07-01T00:34:21;20.60;99.90
17851;DHT22;9051;51.548;14.348;2022-07-01T00:36:54;20.60;99.90
17851;DHT22;9051;51.548;14.348;2022-07-01T00:39:26;20.50;99.90
17851;DHT22;9051;51.548;14.348;2022-07-01T00:42:01;20.40;99.90
17851;DHT22;9051;51.548;14.348;2022-07-01T00:44:34;20.50;99.90
17851;DHT22;9051;51.548;14.348;2022-07-01T00:47:09;20.50;99.90
17851;DHT22;9051;51.548;14.348;2022-07-01T00:49:43;20.50;99.90
17851;DHT22;9051;51.548;14.348;2022-07-01T00:52:16;20.50;99.90
17851;DHT22;9051;51.548;14.348;2022-07-01T00:54:48;20.60;99.90
17851;DHT22;9051;51.548;14.348;2022-07-01T00:57:20;20.50;99.90
17851;DHT22;9051;51.548;14.348;2022-07-01T00:59:53;20.40;99.90
17851;DHT22;9051;51.548;14.348;2022-07-01T01:02:25;20.40;99.90
17851;DHT22;9051;51.548;14.348;2022-07-01T01:04:59;20.30;99.90
17851;DHT22;9051;51.548;14.348;2022-07-01T01:07:32;20.30;99.90
17851;DHT22;9051;51.548;14.348;2022-07-01T01:10:05;20.20;99.90
17851;DHT22;9051;51.548;14.348;2022-07-01T01:12:37;20.30;99.90
17851;DHT22;9051;51.548;14.348;2022-07-01T01:15:09;20.30;99.90
17851;DHT22;9051;51.548;14.348;2022-07-01T01:17:42;20.40;99.90
17851;DHT22;9051;51.548;14.348;2022-07-01T01:20:16;20.40;99.90
17851;DHT22;9051;51.548;14.348;2022-07-01T01:22:50;20.40;99.90
17851;DHT22;9051;51.548;14.348;2022-07-01T01:25:22;20.30;99.90
17851;DHT22;9051;51.548;14.348;2022-07-01T01:27:54;20.30;99.90
17851;DHT22;9051;51.548;14.348;2022-07-01T01:30:26;20.30;99.90
17851;DHT22;9051;51.548;14.348;2022-07-01T01:32:58;20.30;99.90
17851;DHT22;9051;51.548;14.348;2022-07-01T01:35:30;20.20;99.90
17851;DHT22;9051;51.548;14.348;2022-07-01T01:38:07;20.20;99.90
17851;DHT22;9051;51.548;14.348;2022-07-01T01:40:39;20.20;99.90
17851;DHT22;9051;51.548;14.348;2022-07-01T01:43:11;20.20;99.90
17851;DHT22;9051;51.548;14.348;2022-07-01T01:45:43;20.10;99.90
17851;DHT22;9051;51.548;14.348;2022-07-01T01:48:15;20.00;99.90
17851;DHT22;9051;51.548;14.348;2022-07-01T01:50:47;20.00;99.90
17851;DHT22;9051;51.548;14.348;2022-07-01T01:53:21;19.90;99.90
17851;DHT22;9051;51.548;14.348;2022-07-01T01:55:53;19.80;99.90
17851;DHT22;9051;51.548;14.348;2022-07-01T01:58:25;19.70;99.90
17851;DHT22;9051;51.548;14.348;2022-07-01T02:00:57;19.60;99.90
17851;DHT22;9051;51.548;14.348;2022-07-01T02:03:29;19.50;99.90
17851;DHT22;9051;51.548;14.348;2022-07-01T02:06:01;19.40;99.90
17851;DHT22;9051;51.548;14.348;2022-07-01T02:08:34;19.40;99.90
17851;DHT22;9051;51.548;14.348;2022-07-01T02:11:07;19.50;99.90
17851;DHT22;9051;51.548;14.348;2022-07-01T02:13:39;19.50;99.90
17851;DHT22;9051;51.548;14.348;2022-07-01T02:16:11;19.50;99.90
17851;DHT22;9051;51.548;14.348;2022-07-01T02:18:44;19.60;99.90
17851;DHT22;9051;51.548;14.348;2022-07-01T02:21:16;19.60;99.90
17851;DHT22;9051;51.548;14.348;2022-07-01T02:23:50;19.60;99.90
17851;DHT22;9051;51.548;14.348;2022-07-01T02:26:22;19.60;99.90
17851;DHT22;9051;51.548;14.348;2022-07-01T02:28:54;19.60;99.90
17851;DHT22;9051;51.548;14.348;2022-07-01T02:31:26;19.60;99.90
17851;DHT22;9051;51.548;14.348;2022-07-01T02:33:58;19.50;99.90
17851;DHT22;9051;51.548;14.348;2022-07-01T02:36:31;19.40;99.90
17851;DHT22;9051;51.548;14.348;2022-07-01T02:39:04;19.20;99.90
17851;DHT22;9051;51.548;14.348;2022-07-01T02:41:36;19.20;99.90
17851;DHT22;9051;51.548;14.348;2022-07-01T02:44:22;19.20;99.90
17851;DHT22;9051;51.548;14.348;2022-07-01T02:46:54;19.30;99.90
17851;DHT22;9051;51.548;14.348;2022-07-01T02:49:27;19.40;99.90
17851;DHT22;9051;51.548;14.348;2022-07-01T02:51:59;19.40;99.90
17851;DHT22;9051;51.548;14.348;2022-07-01T02:54:32;19.40;99.90
17851;DHT22;9051;51.548;14.348;2022-07-01T02:57:04;19.40;99.90
17851;DHT22;9051;51.548;14.348;2022-07-01T02:59:37;19.20;99.90
17851;DHT22;9051;51.548;14.348;2022-07-01T03:02:09;19.20;99.90
17851;DHT22;9051;51.548;14.348;2022-07-01T03:04:41;19.10;99.90
17851;DHT22;9051;51.548;14.348;2022-07-01T03:07:14;19.00;99.90
17851;DHT22;9051;51.548;14.348;2022-07-01T03:09:48;19.00;99.90
17851;DHT22;9051;51.548;14.348;2022-07-01T03:12:20;19.00;99.90
17851;DHT22;9051;51.548;14.348;2022-07-01T03:15:00;19.20;99.90
17851;DHT22;9051;51.548;14.348;2022-07-01T03:17:34;19.20;99.90
17851;DHT22;9051;51.548;14.348;2022-07-01T03:20:07;19.20;99.90
17851;DHT22;9051;51.548;14.348;2022-07-01T03:22:40;19.20;99.90
17851;DHT22;9051;51.548;14.348;2022-07-01T03:25:14;19.20;99.90
17851;DHT22;9051;51.548;14.348;2022-07-01T03:27:46;19.10;99.90
17851;DHT22;9051;51.548;14.348;2022-07-01T03:30:18;19.10;99.90
17851;DHT22;9051;51.548;14.348;2022-07-01T03:32:51;19.10;99.90
17851;DHT22;9051;51.548;14.348;2022-07-01T03:35:23;19.10;99.90
17851;DHT22;9051;51.548;14.348;2022-07-01T03:38:11;19.10;99.90
17851;DHT22;9051;51.548;14.348;2022-07-01T03:40:45;19.10;99.90
17851;DHT22;9051;51.548;14.348;2022-07-01T03:43:17;19.10;99.90
17851;DHT22;9051;51.548;14.348;2022-07-01T03:45:49;19.10;99.90
17851;DHT22;9051;51.548;14.348;2022-07-01T03:48:21;19.10;99.90
17851;DHT22;9051;51.548;14.348;2022-07-01T03:50:53;19.20;99.90
17851;DHT22;9051;51.548;14.348;2022-07-01T03:53:25;19.30;99.90
17851;DHT22;9051;51.548;14.348;2022-07-01T03:56:16;19.30;99.90
17851;DHT22;9051;51.548;14.348;2022-07-01T03:58:48;19.50;99.90
17851;DHT22;9051;51.548;14.348;2022-07-01T04:01:20;19.50;99.90
17851;DHT22;9051;51.548;14.348;2022-07-01T04:03:53;19.60;99.90
17851;DHT22;9051;51.548;14.348;2022-07-01T04:06:26;19.60;99.90
17851;DHT22;9051;51.548;14.348;2022-07-01T04:08:58;19.60;99.90
17851;DHT22;9051;51.548;14.348;2022-07-01T04:11:32;19.60;99.90
17851;DHT22;9051;51.548;14.348;2022-07-01T04:14:04;19.70;99.90
17851;DHT22;9051;51.548;14.348;2022-07-01T04:16:37;19.70;99.90
17851;DHT22;9051;51.548;14.348;2022-07-01T04:19:09;19.80;99.90
17851;DHT22;9051;51.548;14.348;2022-07-01T04:21:41;19.80;99.90
17851;DHT22;9051;51.548;14.348;2022-07-01T04:24:31;19.80;99.90
17851;DHT22;9051;51.548;14.348;2022-07-01T04:27:06;19.90;99.90
17851;DHT22;9051;51.548;14.348;2022-07-01T04:29:38;19.90;99.90
17851;DHT22;9051;51.548;14.348;2022-07-01T04:32:10;19.90;99.90
17851;DHT22;9051;51.548;14.348;2022-07-01T04:34:43;20.00;99.90
17851;DHT22;9051;51.548;14.348;2022-07-01T04:37:15;20.00;99.90
17851;DHT22;9051;51.548;14.348;2022-07-01T04:39:47;20.10;99.90
17851;DHT22;9051;51.548;14.348;2022-07-01T04:42:20;20.20;99.90
17851;DHT22;9051;51.548;14.348;2022-07-01T04:44:53;20.20;99.90
17851;DHT22;9051;51.548;14.348;2022-07-01T04:47:25;20.30;99.90
17851;DHT22;9051;51.548;14.348;2022-07-01T04:50:03;20.40;99.90
17851;DHT22;9051;51.548;14.348;2022-07-01T04:52:35;20.50;99.90
17851;DHT22;9051;51.548;14.348;2022-07-01T04:55:08;20.60;99.90
17851;DHT22;9051;51.548;14.348;2022-07-01T04:57:42;20.60;99.90
17851;DHT22;9051;51.548;14.348;2022-07-01T05:00:15;20.60;99.90
17851;DHT22;9051;51.548;14.348;2022-07-01T05:02:47;20.70;99.90
17851;DHT22;9051;51.548;14.348;2022-07-01T05:05:19;20.80;99.90
17851;DHT22;9051;51.548;14.348;2022-07-01T05:07:51;20.80;99.90
17851;DHT22;9051;51.548;14.348;2022-07-01T05:10:23;20.90;99.90
17851;DHT22;9051;51.548;14.348;2022-07-01T05:12:57;21.00;99.90
17851;DHT22;9051;51.548;14.348;2022-07-01T05:15:29;21.00;99.90
17851;DHT22;9051;51.548;14.348;2022-07-01T05:18:01;21.10;99.90
17851;DHT22;9051;51.548;14.348;2022-07-01T05:20:50;21.20;99.90
17851;DHT22;9051;51.548;14.348;2022-07-01T05:23:40;21.20;99.90
17851;DHT22;9051;51.548;14.348;2022-07-01T05:26:12;21.30;99.90
17851;DHT22;9051;51.548;14.348;2022-07-01T05:28:49;21.40;99.90
17851;DHT22;9051;51.548;14.348;2022-07-01T05:31:21;21.40;99.90
17851;DHT22;9051;51.548;14.348;2022-07-01T05:33:53;21.50;99.90
17851;DHT22;9051;51.548;14.348;2022-07-01T05:36:25;21.60;99.90
17851;DHT22;9051;51.548;14.348;2022-07-01T05:38:57;21.70;99.90
17851;DHT22;9051;51.548;14.348;2022-07-01T05:41:29;21.80;99.90
17851;DHT22;9051;51.548;14.348;2022-07-01T05:44:03;22.00;99.90
17851;DHT22;9051;51.548;14.348;2022-07-01T05:46:35;22.00;99.90
17851;DHT22;9051;51.548;14.348;2022-07-01T05:49:07;22.10;99.90
17851;DHT22;9051;51.548;14.348;2022-07-01T05:51:39;22.10;99.90
17851;DHT22;9051;51.548;14.348;2022-07-01T05:54:11;22.10;99.90
17851;DHT22;9051;51.548;14.348;2022-07-01T05:56:43;22.20;99.90
17851;DHT22;9051;51.548;14.348;2022-07-01T05:59:16;22.20;99.90
17851;DHT22;9051;51.548;14.348;2022-07-01T06:01:48;22.30;99.90
17851;DHT22;9051;51.548;14.348;2022-07-01T06:04:21;22.40;99.90
17851;DHT22;9051;51.548;14.348;2022-07-01T06:06:53;22.60;99.90
17851;DHT22;9051;51.548;14.348;2022-07-01T06:09:25;22.70;99.90
17851;DHT22;9051;51.548;14.348;2022-07-01T06:11:57;22.70;99.90
17851;DHT22;9051;51.548;14.348;2022-07-01T06:14:30;22.90;99.90
17851;DHT22;9051;51.548;14.348;2022-07-01T06:17:02;22.90;99.90
17851;DHT22;9051;51.548;14.348;2022-07-01T06:19:34;23.00;99.90
17851;DHT22;9051;51.548;14.348;2022-07-01T06:22:09;23.10;99.90
17851;DHT22;9051;51.548;14.348;2022-07-01T06:24:41;23.10;99.90
17851;DHT22;9051;51.548;14.348;2022-07-01T06:27:14;23.20;99.90
17851;DHT22;9051;51.548;14.348;2022-07-01T06:29:47;23.30;99.90
17851;DHT22;9051;51.548;14.348;2022-07-01T06:32:19;23.40;99.90
17851;DHT22;9051;51.548;14.348;2022-07-01T06:34:51;23.50;99.90
17851;DHT22;9051;51.548;14.348;2022-07-01T06:37:23;23.60;99.90
17851;DHT22;9051;51.548;14.348;2022-07-01T06:39:55;23.80;99.90
17851;DHT22;9051;51.548;14.348;2022-07-01T06:42:27;23.90;99.90
17851;DHT22;9051;51.548;14.348;2022-07-01T06:45:00;24.00;99.90
17851;DHT22;9051;51.548;14.348;2022-07-01T06:47:32;24.10;99.90
17851;DHT22;9051;51.548;14.348;2022-07-01T06:50:05;24.30;99.90
17851;DHT22;9051;51.548;14.348;2022-07-01T06:52:37;24.50;99.90
17851;DHT22;9051;51.548;14.348;2022-07-01T06:55:09;24.50;99.90
17851;DHT22;9051;51.548;14.348;2022-07-01T06:57:41;24.60;99.90
17851;DHT22;9051;51.548;14.348;2022-07-01T07:00:15;24.60;99.90
17851;DHT22;9051;51.548;14.348;2022-07-01T07:02:47;24.60;99.90
17851;DHT22;9051;51.548;14.348;2022-07-01T07:05:19;24.60;99.90
17851;DHT22;9051;51.548;14.348;2022-07-01T07:07:51;24.70;99.90
17851;DHT22;9051;51.548;14.348;2022-07-01T07:10:23;24.80;99.90
17851;DHT22;9051;51.548;14.348;2022-07-01T07:12:54;24.80;99.90
17851;DHT22;9051;51.548;14.348;2022-07-01T07:15:28;24.90;99.90
17851;DHT22;9051;51.548;14.348;2022-07-01T07:18:00;24.90;99.90
17851;DHT22;9051;51.548;14.348;2022-07-01T07:20:31;24.90;99.90
17851;DHT22;9051;51.548;14.348;2022-07-01T07:23:03;25.00;99.90
17851;DHT22;9051;51.548;14.348;2022-07-01T07:25:37;25.20;99.90
17851;DHT22;9051;51.548;14.348;2022-07-01T07:28:09;25.30;99.90
17851;DHT22;9051;51.548;14.348;2022-07-01T07:30:43;25.40;99.90
17851;DHT22;9051;51.548;14.348;2022-07-01T07:33:14;25.40;99.90
17851;DHT22;9051;51.548;14.348;2022-07-01T07:35:46;25.40;99.90
17851;DHT22;9051;51.548;14.348;2022-07-01T07:38:19;25.40;99.90
17851;DHT22;9051;51.548;14.348;2022-07-01T07:40:51;25.40;99.90
17851;DHT22;9051;51.548;14.348;2022-07-01T07:43:23;25.50;99.90
17851;DHT22;9051;51.548;14.348;2022-07-01T07:45:56;25.40;99.90
17851;DHT22;9051;51.548;14.348;2022-07-01T07:48:28;25.50;99.90
17851;DHT22;9051;51.548;14.348;2022-07-01T07:51:00;25.70;99.90
17851;DHT22;9051;51.548;14.348;2022-07-01T07:53:32;25.70;99.90
17851;DHT22;9051;51.548;14.348;2022-07-01T07:56:04;25.60;99.90
17851;DHT22;9051;51.548;14.348;2022-07-01T07:58:36;25.60;99.90
17851;DHT22;9051;51.548;14.348;2022-07-01T08:01:13;25.70;99.90
17851;DHT22;9051;51.548;14.348;2022-07-01T08:03:45;25.70;99.90
17851;DHT22;9051;51.548;14.348;2022-07-01T08:06:17;25.80;99.90
17851;DHT22;9051;51.548;14.348;2022-07-01T08:08:49;25.90;99.90
17851;DHT22;9051;51.548;14.348;2022-07-01T08:11:21;25.90;99.90
17851;DHT22;9051;51.548;14.348;2022-07-01T08:13:53;26.00;99.90
17851;DHT22;9051;51.548;14.348;2022-07-01T08:16:26;26.00;99.90
17851;DHT22;9051;51.548;14.348;2022-07-01T08:18:58;26.00;99.90
17851;DHT22;9051;51.548;14.348;2022-07-01T08:21:30;26.10;99.90
17851;DHT22;9051;51.548;14.348;2022-07-01T08:24:02;26.20;99.90
17851;DHT22;9051;51.548;14.348;2022-07-01T08:26:34;26.30;99.90
17851;DHT22;9051;51.548;14.348;2022-07-01T08:29:06;26.30;99.90
17851;DHT22;9051;51.548;14.348;2022-07-01T08:31:39;26.30;99.90
17851;DHT22;9051;51.548;14.348;2022-07-01T08:34:12;26.40;99.90
17851;DHT22;9051;51.548;14.348;2022-07-01T08:36:46;26.50;99.90
17851;DHT22;9051;51.548;14.348;2022-07-01T08:39:18;26.50;99.90
17851;DHT22;9051;51.548;14.348;2022-07-01T08:41:50;26.60;99.90
17851;DHT22;9051;51.548;14.348;2022-07-01T08:44:22;26.70;99.90
17851;DHT22;9051;51.548;14.348;2022-07-01T08:46:55;26.70;99.90
17851;DHT22;9051;51.548;14.348;2022-07-01T08:49:27;26.60;99.90
17851;DHT22;9051;51.548;14.348;2022-07-01T08:51:59;26.60;99.90
17851;DHT22;9051;51.548;14.348;2022-07-01T08:54:31;26.60;99.90
17851;DHT22;9051;51.548;14.348;2022-07-01T08:57:04;26.60;99.90
17851;DHT22;9051;51.548;14.348;2022-07-01T08:59:37;26.70;99.90
17851;DHT22;9051;51.548;14.348;2022-07-01T09:02:10;26.80;99.90
17851;DHT22;9051;51.548;14.348;2022-07-01T09:04:42;26.90;99.90
17851;DHT22;9051;51.548;14.348;2022-07-01T09:07:13;26.90;99.90
17851;DHT22;9051;51.548;14.348;2022-07-01T09:09:45;26.80;99.90
17851;DHT22;9051;51.548;14.348;2022-07-01T09:12:17;26.90;99.90
17851;DHT22;9051;51.548;14.348;2022-07-01T09:14:49;26.90;99.90
17851;DHT22;9051;51.548;14.348;2022-07-01T09:17:24;26.90;99.90
17851;DHT22;9051;51.548;14.348;2022-07-01T09:19:55;27.00;99.90
17851;DHT22;9051;51.548;14.348;2022-07-01T09:22:27;26.90;99.90
17851;DHT22;9051;51.548;14.348;2022-07-01T09:24:59;27.00;99.90
17851;DHT22;9051;51.548;14.348;2022-07-01T09:27:31;27.00;99.90
17851;DHT22;9051;51.548;14.348;2022-07-01T09:30:09;27.10;99.90
17851;DHT22;9051;51.548;14.348;2022-07-01T09:32:42;27.10;99.90
17851;DHT22;9051;51.548;14.348;2022-07-01T09:35:22;27.10;99.90
17851;DHT22;9051;51.548;14.348;2022-07-01T09:37:55;27.20;99.90
17851;DHT22;9051;51.548;14.348;2022-07-01T09:40:45;27.10;99.90
17851;DHT22;9051;51.548;14.348;2022-07-01T09:43:19;27.00;99.90
17851;DHT22;9051;51.548;14.348;2022-07-01T09:45:56;26.60;99.90
17851;DHT22;9051;51.548;14.348;2022-07-01T09:48:44;26.50;99.90
17851;DHT22;9051;51.548;14.348;2022-07-01T09:51:16;26.50;99.90
17851;DHT22;9051;51.548;14.348;2022-07-01T09:53:48;26.30;99.90
17851;DHT22;9051;51.548;14.348;2022-07-01T09:56:20;26.20;99.90
17851;DHT22;9051;51.548;14.348;2022-07-01T09:58:52;26.10;99.90
17851;DHT22;9051;51.548;14.348;2022-07-01T10:01:24;26.00;99.90
17851;DHT22;9051;51.548;14.348;2022-07-01T10:03:58;25.80;99.90
17851;DHT22;9051;51.548;14.348;2022-07-01T10:06:45;25.70;99.90
17851;DHT22;9051;51.548;14.348;2022-07-01T10:09:35;25.60;99.90
17851;DHT22;9051;51.548;14.348;2022-07-01T10:12:31;25.70;99.90
17851;DHT22;9051;51.548;14.348;2022-07-01T10:15:06;25.70;99.90
17851;DHT22;9051;51.548;14.348;2022-07-01T10:17:44;25.70;99.90
17851;DHT22;9051;51.548;14.348;2022-07-01T10:20:19;25.60;99.90
17851;DHT22;9051;51.548;14.348;2022-07-01T10:23:01;25.60;99.90
17851;DHT22;9051;51.548;14.348;2022-07-01T10:25:39;25.40;99.90
17851;DHT22;9051;51.548;14.348;2022-07-01T10:28:17;25.20;99.90
17851;DHT22;9051;51.548;14.348;2022-07-01T10:30:58;25.10;99.90
17851;DHT22;9051;51.548;14.348;2022-07-01T10:33:47;24.70;99.90
17851;DHT22;9051;51.548;14.348;2022-07-01T10:36:26;24.30;99.90
17851;DHT22;9051;51.548;14.348;2022-07-01T10:39:09;24.00;99.90
17851;DHT22;9051;51.548;14.348;2022-07-01T10:41:55;23.80;99.90
17851;DHT22;9051;51.548;14.348;2022-07-01T10:44:28;23.70;99.90
17851;DHT22;9051;51.548;14.348;2022-07-01T10:47:03;23.80;99.90
17851;DHT22;9051;51.548;14.348;2022-07-01T10:49:56;23.80;99.90
17851;DHT22;9051;51.548;14.348;2022-07-01T10:52:30;23.60;99.90
17851;DHT22;9051;51.548;14.348;2022-07-01T10:55:03;23.40;99.90
17851;DHT22;9051;51.548;14.348;2022-07-01T10:57:40;23.30;99.90
17851;DHT22;9051;51.548;14.348;2022-07-01T11:00:33;23.30;99.90
17851;DHT22;9051;51.548;14.348;2022-07-01T11:03:08;23.50;99.90
17851;DHT22;9051;51.548;14.348;2022-07-01T11:05:41;23.30;99.90
17851;DHT22;9051;51.548;14.348;2022-07-01T11:08:15;22.80;99.90
17851;DHT22;9051;51.548;14.348;2022-07-01T11:10:51;22.90;99.90
17851;DHT22;9051;51.548;14.348;2022-07-01T11:13:24;22.90;99.90
17851;DHT22;9051;51.548;14.348;2022-07-01T11:15:56;22.70;99.90
17851;DHT22;9051;51.548;14.348;2022-07-01T11:18:29;22.60;99.90
17851;DHT22;9051;51.548;14.348;2022-07-01T11:21:06;22.70;99.90
17851;DHT22;9051;51.548;14.348;2022-07-01T11:23:40;22.80;99.90
17851;DHT22;9051;51.548;14.348;2022-07-01T11:26:22;22.90;99.90
17851;DHT22;9051;51.548;14.348;2022-07-01T11:28:54;23.10;99.90
17851;DHT22;9051;51.548;14.348;2022-07-01T11:31:27;23.10;99.90
17851;DHT22;9051;51.548;14.348;2022-07-01T11:33:59;23.20;99.90
17851;DHT22;9051;51.548;14.348;2022-07-01T11:36:32;23.50;99.90
17851;DHT22;9051;51.548;14.348;2022-07-01T11:39:23;23.70;99.90
17851;DHT22;9051;51.548;14.348;2022-07-01T11:41:56;23.80;99.90
17851;DHT22;9051;51.548;14.348;2022-07-01T11:44:33;23.50;99.90
17851;DHT22;9051;51.548;14.348;2022-07-01T11:47:08;23.40;99.90
17851;DHT22;9051;51.548;14.348;2022-07-01T11:49:45;23.40;99.90
17851;DHT22;9051;51.548;14.348;2022-07-01T11:52:18;23.40;99.90
17851;DHT22;9051;51.548;14.348;2022-07-01T11:54:54;23.20;99.90
17851;DHT22;9051;51.548;14.348;2022-07-01T11:57:28;23.10;99.90
17851;DHT22;9051;51.548;14.348;2022-07-01T12:00:10;23.00;99.90
17851;DHT22;9051;51.548;14.348;2022-07-01T12:02:42;23.10;99.90
17851;DHT22;9051;51.548;14.348;2022-07-01T12:05:14;23.20;99.90
17851;DHT22;9051;51.548;14.348;2022-07-01T12:07:46;23.20;99.90
17851;DHT22;9051;51.548;14.348;2022-07-01T12:10:23;23.40;99.90
17851;DHT22;9051;51.548;14.348;2022-07-01T12:12:55;23.50;99.90
17851;DHT22;9051;51.548;14.348;2022-07-01T12:15:27;23.40;99.90
17851;DHT22;9051;51.548;14.348;2022-07-01T12:18:05;23.50;99.90
17851;DHT22;9051;51.548;14.348;2022-07-01T12:20:37;23.50;99.90
17851;DHT22;9051;51.548;14.348;2022-07-01T12:23:12;23.60;99.90
17851;DHT22;9051;51.548;14.348;2022-07-01T12:25:52;23.60;99.90
17851;DHT22;9051;51.548;14.348;2022-07-01T12:28:30;23.40;99.90
17851;DHT22;9051;51.548;14.348;2022-07-01T12:31:04;23.40;99.90
17851;DHT22;9051;51.548;14.348;2022-07-01T12:33:39;23.20;99.90
17851;DHT22;9051;51.548;14.348;2022-07-01T12:36:11;22.90;99.90
17851;DHT22;9051;51.548;14.348;2022-07-01T12:38:45;22.90;99.90
17851;DHT22;9051;51.548;14.348;2022-07-01T12:41:28;22.90;99.90
17851;DHT22;9051;51.548;14.348;2022-07-01T12:44:00;23.00;99.90
17851;DHT22;9051;51.548;14.348;2022-07-01T12:46:33;22.90;99.90
17851;DHT22;9051;51.548;14.348;2022-07-01T12:49:05;22.80;99.90
17851;DHT22;9051;51.548;14.348;2022-07-01T12:51:37;22.90;99.90
17851;DHT22;9051;51.548;14.348;2022-07-01T12:54:28;22.60;99.90
17851;DHT22;9051;51.548;14.348;2022-07-01T12:57:02;22.60;99.90
17851;DHT22;9051;51.548;14.348;2022-07-01T12:59:34;22.70;99.90
17851;DHT22;9051;51.548;14.348;2022-07-01T13:02:06;22.90;99.90
17851;DHT22;9051;51.548;14.348;2022-07-01T13:04:38;22.80;99.90
17851;DHT22;9051;51.548;14.348;2022-07-01T13:07:10;22.90;99.90
17851;DHT22;9051;51.548;14.348;2022-07-01T13:09:42;22.80;99.90
17851;DHT22;9051;51.548;14.348;2022-07-01T13:12:15;22.50;99.90
17851;DHT22;9051;51.548;14.348;2022-07-01T13:14:47;22.20;99.90
17851;DHT22;9051;51.548;14.348;2022-07-01T13:17:19;22.20;99.90
17851;DHT22;9051;51.548;14.348;2022-07-01T13:19:52;22.10;99.90
17851;DHT22;9051;51.548;14.348;2022-07-01T13:22:24;22.10;99.90
17851;DHT22;9051;51.548;14.348;2022-07-01T13:24:56;21.90;99.90
17851;DHT22;9051;51.548;14.348;2022-07-01T13:27:29;21.80;99.90
17851;DHT22;9051;51.548;14.348;2022-07-01T13:30:02;21.70;99.90
17851;DHT22;9051;51.548;14.348;2022-07-01T13:32:34;21.60;99.90
17851;DHT22;9051;51.548;14.348;2022-07-01T13:35:07;21.70;99.90
17851;DHT22;9051;51.548;14.348;2022-07-01T13:37:39;21.60;99.90
17851;DHT22;9051;51.548;14.348;2022-07-01T13:40:12;21.70;99.90
17851;DHT22;9051;51.548;14.348;2022-07-01T13:42:45;21.60;99.90
17851;DHT22;9051;51.548;14.348;2022-07-01T13:45:17;21.60;99.90
17851;DHT22;9051;51.548;14.348;2022-07-01T13:47:49;21.50;99.90
17851;DHT22;9051;51.548;14.348;2022-07-01T13:50:21;21.40;99.90
17851;DHT22;9051;51.548;14.348;2022-07-01T13:52:53;21.10;99.90
17851;DHT22;9051;51.548;14.348;2022-07-01T13:55:25;21.20;99.90
17851;DHT22;9051;51.548;14.348;2022-07-01T13:57:58;21.20;99.90
17851;DHT22;9051;51.548;14.348;2022-07-01T14:00:30;21.20;99.90
17851;DHT22;9051;51.548;14.348;2022-07-01T14:03:02;21.10;99.90
17851;DHT22;9051;51.548;14.348;2022-07-01T14:05:34;21.10;99.90
17851;DHT22;9051;51.548;14.348;2022-07-01T14:08:06;21.10;99.90
17851;DHT22;9051;51.548;14.348;2022-07-01T14:10:40;21.00;99.90
17851;DHT22;9051;51.548;14.348;2022-07-01T14:13:14;20.80;99.90
17851;DHT22;9051;51.548;14.348;2022-07-01T14:15:47;20.80;99.90
17851;DHT22;9051;51.548;14.348;2022-07-01T14:18:19;20.70;99.90
17851;DHT22;9051;51.548;14.348;2022-07-01T14:20:52;20.70;99.90
17851;DHT22;9051;51.548;14.348;2022-07-01T14:23:24;20.70;99.90
17851;DHT22;9051;51.548;14.348;2022-07-01T14:25:55;20.80;99.90
17851;DHT22;9051;51.548;14.348;2022-07-01T14:28:29;20.80;99.90
17851;DHT22;9051;51.548;14.348;2022-07-01T14:31:01;20.80;99.90
17851;DHT22;9051;51.548;14.348;2022-07-01T14:33:33;20.90;99.90
17851;DHT22;9051;51.548;14.348;2022-07-01T14:36:05;20.90;99.90
17851;DHT22;9051;51.548;14.348;2022-07-01T14:38:37;20.90;99.90
17851;DHT22;9051;51.548;14.348;2022-07-01T14:41:09;20.90;99.90
17851;DHT22;9051;51.548;14.348;2022-07-01T14:43:42;20.70;99.90
17851;DHT22;9051;51.548;14.348;2022-07-01T14:46:14;20.50;99.90
17851;DHT22;9051;51.548;14.348;2022-07-01T14:48:46;20.20;99.90
17851;DHT22;9051;51.548;14.348;2022-07-01T14:51:18;20.10;99.90
17851;DHT22;9051;51.548;14.348;2022-07-01T14:53:50;20.00;99.90
17851;DHT22;9051;51.548;14.348;2022-07-01T14:56:22;19.90;99.90
17851;DHT22;9051;51.548;14.348;2022-07-01T14:58:55;19.80;99.90
17851;DHT22;9051;51.548;14.348;2022-07-01T15:01:27;19.70;99.90
17851;DHT22;9051;51.548;14.348;2022-07-01T15:03:59;19.60;99.90
17851;DHT22;9051;51.548;14.348;2022-07-01T15:06:31;19.60;99.90
17851;DHT22;9051;51.548;14.348;2022-07-01T15:09:03;19.40;99.90
17851;DHT22;9051;51.548;14.348;2022-07-01T15:11:35;19.40;99.90
17851;DHT22;9051;51.548;14.348;2022-07-01T15:14:08;19.30;99.90
17851;DHT22;9051;51.548;14.348;2022-07-01T15:16:40;19.30;99.90
17851;DHT22;9051;51.548;14.348;2022-07-01T15:19:12;19.30;99.90
17851;DHT22;9051;51.548;14.348;2022-07-01T15:21:44;19.10;99.90
17851;DHT22;9051;51.548;14.348;2022-07-01T15:24:16;19.00;99.90
17851;DHT22;9051;51.548;14.348;2022-07-01T15:26:48;19.00;99.90
17851;DHT22;9051;51.548;14.348;2022-07-01T15:29:21;19.00;99.90
17851;DHT22;9051;51.548;14.348;2022-07-01T15:31:54;19.10;99.90
17851;DHT22;9051;51.548;14.348;2022-07-01T15:34:26;19.10;99.90
17851;DHT22;9051;51.548;14.348;2022-07-01T15:36:58;19.10;99.90
17851;DHT22;9051;51.548;14.348;2022-07-01T15:39:30;19.20;99.90
17851;DHT22;9051;51.548;14.348;2022-07-01T15:42:02;19.10;99.90
17851;DHT22;9051;51.548;14.348;2022-07-01T15:44:36;19.10;99.90
17851;DHT22;9051;51.548;14.348;2022-07-01T15:47:08;19.20;99.90
17851;DHT22;9051;51.548;14.348;2022-07-01T15:49:54;19.20;99.90
17851;DHT22;9051;51.548;14.348;2022-07-01T15:52:26;19.20;99.90
17851;DHT22;9051;51.548;14.348;2022-07-01T15:54:57;19.20;99.90
17851;DHT22;9051;51.548;14.348;2022-07-01T15:57:30;19.20;99.90
17851;DHT22;9051;51.548;14.348;2022-07-01T16:00:07;19.20;99.90
17851;DHT22;9051;51.548;14.348;2022-07-01T16:02:40;19.20;99.90
17851;DHT22;9051;51.548;14.348;2022-07-01T16:05:12;19.20;99.90
17851;DHT22;9051;51.548;14.348;2022-07-01T16:07:44;19.20;99.90
17851;DHT22;9051;51.548;14.348;2022-07-01T16:10:26;19.00;99.90